Time;durP1;ratioP1;P1;durP2;ratioP2;P2;SDS_P1;SDS_P2;PMS_P1;PMS_P2;Temp;Humidity;BMP_temperature;BMP_pressure;BME280_temperature;BME280_humidity;BME280_pressure;Samples;Min_cycle;Max_cycle;Signal;HPM_P1;HPM_P2
2022/08/01 00:02:06;;;;;;;;;1.00;1.00;;;;;25.01;52.61;101581.72;5102196;27;46135;-59
2022/08/01 00:04:32;;;;;;;;;2.00;2.00;;;;;25.01;52.52;101582.56;5102359;27;45365;-60
2022/08/01 00:06:57;;;;;;;;;1.00;1.00;;;;;25.00;52.40;101582.72;5102599;27;45472;-60
2022/08/01 00:09:23;;;;;;;;;4.00;2.50;;;;;25.00;52.27;101569.25;5102617;27;45524;-60
2022/08/01 00:11:48;;;;;;;;;2.50;2.25;;;;;24.98;52.38;101582.91;5102313;27;45991;-60
2022/08/01 00:14:14;;;;;;;;;3.00;3.00;;;;;24.96;52.43;101578.66;5102478;27;45323;-60
2022/08/01 00:16:39;;;;;;;;;2.00;2.00;;;;;24.94;52.81;101580.69;5102136;27;45305;-60
2022/08/01 00:19:05;;;;;;;;;3.00;3.00;;;;;24.91;52.48;101587.25;5102451;27;45359;-60
2022/08/01 00:21:30;;;;;;;;;1.00;1.00;;;;;24.88;52.82;101582.16;5097875;27;45974;-60
2022/08/01 00:23:55;;;;;;;;;3.00;3.00;;;;;24.89;52.54;101578.50;5092770;27;45250;-60
2022/08/01 00:26:21;;;;;;;;;3.00;2.25;;;;;24.91;52.91;101573.78;5102210;27;45338;-60
2022/08/01 00:28:46;;;;;;;;;4.00;3.00;;;;;24.93;52.94;101568.22;5102273;27;45253;-60
2022/08/01 00:31:12;;;;;;;;;2.25;2.00;;;;;24.93;52.87;101569.06;5101922;27;46135;-60
2022/08/01 00:33:37;;;;;;;;;2.00;2.00;;;;;24.94;53.14;101575.28;5101996;27;45429;-60
2022/08/01 00:36:03;;;;;;;;;1.50;1.50;;;;;24.94;52.54;101569.91;5102081;27;45354;-60
2022/08/01 00:38:28;;;;;;;;;2.00;2.00;;;;;24.95;52.52;101558.09;5101868;27;45156;-60
2022/08/01 00:40:54;;;;;;;;;2.75;1.00;;;;;24.95;52.90;101561.63;5101895;27;45617;-60
2022/08/01 00:43:19;;;;;;;;;2.00;1.00;;;;;24.95;52.74;101560.78;5102019;27;45291;-60
2022/08/01 00:45:45;;;;;;;;;1.00;1.00;;;;;24.94;52.61;101553.72;5101999;27;46572;-60
2022/08/01 00:48:10;;;;;;;;;1.00;1.00;;;;;24.93;52.94;101554.75;5100508;27;45569;-60
2022/08/01 00:50:36;;;;;;;;;1.00;1.00;;;;;24.93;52.58;101563.66;5101858;27;46419;-61
2022/08/01 00:53:02;;;;;;;;;1.50;1.00;;;;;24.91;52.61;101551.38;5102046;27;45389;-60
2022/08/01 00:55:28;;;;;;;;;0.75;0.75;;;;;24.90;53.07;101553.22;5101946;27;45321;-60
2022/08/01 00:57:55;;;;;;;;;0.50;0.50;;;;;24.92;52.73;101555.75;5101932;27;45568;-60
2022/08/01 01:00:21;;;;;;;;;1.50;0.50;;;;;24.90;52.51;101549.69;5101642;27;45320;-60
2022/08/01 01:02:47;;;;;;;;;0.75;0.75;;;;;24.89;52.48;101548.84;5101367;27;45481;-60
2022/08/01 01:05:12;;;;;;;;;1.00;1.00;;;;;24.89;52.41;101554.25;5101384;27;45400;-60
2022/08/01 01:07:53;;;;;;;;;1.00;1.00;;;;;24.88;52.44;101557.91;5101919;27;45152;-60
2022/08/01 01:10:28;;;;;;;;;1.25;1.00;;;;;24.86;53.16;101551.84;5101561;27;45455;-60
2022/08/01 01:12:59;;;;;;;;;1.00;1.00;;;;;24.85;53.19;101549.31;5101541;27;45335;-60
2022/08/01 01:15:40;;;;;;;;;0.00;0.00;;;;;24.83;53.19;101546.81;5101787;27;45287;-60
2022/08/01 01:18:11;;;;;;;;;2.00;1.00;;;;;24.82;52.76;101552.34;5101360;27;45265;-60
2022/08/01 01:20:41;;;;;;;;;1.50;0.00;;;;;24.81;53.32;101545.28;5101439;27;46051;-60
2022/08/01 01:23:15;;;;;;;;;1.00;1.00;;;;;24.81;53.00;101546.13;5101390;27;45329;-60
2022/08/01 01:26:29;;;;;;;;;1.00;1.00;;;;;24.78;53.02;101539.19;5101222;27;45466;-60
2022/08/01 01:29:16;;;;;;;;;0.50;0.50;;;;;24.79;53.23;101548.13;5083541;27;45348;-60
2022/08/01 01:31:49;;;;;;;;;0.25;0.25;;;;;24.75;53.47;101547.63;5100962;27;45295;-60
2022/08/01 01:34:18;;;;;;;;;0.00;0.00;;;;;24.71;53.45;101542.72;5100997;27;45504;-60
2022/08/01 01:36:45;;;;;;;;;2.00;1.00;;;;;24.70;52.96;101549.09;5101316;27;45172;-60
2022/08/01 01:39:14;;;;;;;;;1.00;1.00;;;;;24.71;53.21;101550.78;5101410;27;45499;-60
2022/08/01 01:41:41;;;;;;;;;1.00;1.00;;;;;24.69;53.38;101540.19;5101188;27;45421;-60
2022/08/01 01:44:08;;;;;;;;;0.00;0.00;;;;;24.71;53.01;101540.84;5100883;27;45343;-60
2022/08/01 01:46:35;;;;;;;;;2.00;1.00;;;;;24.70;53.49;101549.09;5101051;27;45221;-60
2022/08/01 01:49:02;;;;;;;;;1.00;1.00;;;;;24.70;53.32;101549.09;5101346;27;45433;-60
2022/08/01 01:51:29;;;;;;;;;1.00;1.00;;;;;24.71;53.67;101551.63;5102689;27;46394;-60
2022/08/01 01:53:56;;;;;;;;;2.50;2.50;;;;;24.70;53.33;101549.09;5104488;27;45361;-60
2022/08/01 01:56:24;;;;;;;;;2.25;2.00;;;;;24.69;53.41;101536.66;5104698;27;45304;-60
2022/08/01 01:58:55;;;;;;;;;1.00;1.00;;;;;24.65;53.26;101538.00;5104776;27;45413;-60
2022/08/01 02:01:25;;;;;;;;;1.00;1.00;;;;;24.61;53.40;101536.63;5104202;27;45637;-60
2022/08/01 02:03:53;;;;;;;;;1.50;1.00;;;;;24.59;53.96;101544.88;5104188;27;46525;-60
2022/08/01 02:06:21;;;;;;;;;1.00;1.00;;;;;24.58;54.06;101539.66;5104476;27;45321;-60
2022/08/01 02:08:47;;;;;;;;;1.00;1.00;;;;;24.53;53.79;101534.75;5104645;27;45470;-60
2022/08/01 02:11:19;;;;;;;;;1.00;1.00;;;;;24.49;53.65;101541.47;5104305;27;45566;-60
2022/08/01 02:13:58;;;;;;;;;0.75;0.75;;;;;24.48;54.31;101545.16;5104257;27;45323;-60
2022/08/01 02:16:31;;;;;;;;;1.25;1.25;;;;;24.48;54.37;101542.44;5104186;27;45330;-60
2022/08/01 02:18:57;;;;;;;;;0.00;0.00;;;;;24.45;54.73;101538.25;5104573;27;45180;-60
2022/08/01 02:21:49;;;;;;;;;2.00;0.25;;;;;24.44;54.21;101538.41;5104115;27;46452;-60
2022/08/01 02:24:34;;;;;;;;;0.25;0.00;;;;;24.43;54.67;101540.25;5104092;27;45324;-60
2022/08/01 02:27:07;;;;;;;;;1.00;0.25;;;;;24.41;54.93;101536.03;5104440;27;45373;-60
2022/08/01 02:29:43;;;;;;;;;1.00;1.00;;;;;24.42;55.00;101538.56;5104141;27;45647;-60
2022/08/01 02:32:35;;;;;;;;;0.75;0.75;;;;;24.40;54.75;101545.09;5103722;27;45267;-60
2022/08/01 02:35:03;;;;;;;;;0.00;0.00;;;;;24.38;54.83;101536.34;5104092;27;45259;-60
2022/08/01 02:37:33;;;;;;;;;1.00;1.00;;;;;24.37;54.70;101545.44;5103812;27;45371;-60
2022/08/01 02:40:00;;;;;;;;;0.00;0.00;;;;;24.37;55.04;101538.22;5104235;27;45319;-60
2022/08/01 02:42:29;;;;;;;;;1.75;1.75;;;;;24.36;55.01;101539.22;5103532;27;46473;-60
2022/08/01 02:44:56;;;;;;;;;0.00;0.00;;;;;24.37;54.91;101538.22;5103766;27;45430;-60
2022/08/01 02:47:25;;;;;;;;;1.75;0.00;;;;;24.38;54.99;101534.50;5103515;27;45322;-60
2022/08/01 02:49:52;;;;;;;;;0.00;0.00;;;;;24.39;54.85;101538.03;5103966;27;45225;-60
2022/08/01 02:52:20;;;;;;;;;0.50;0.50;;;;;24.40;54.92;101534.34;5103530;27;45376;-60
2022/08/01 02:54:49;;;;;;;;;0.00;0.00;;;;;24.38;55.25;101539.88;5103817;27;45275;-60
2022/08/01 02:57:17;;;;;;;;;1.00;1.00;;;;;24.37;55.09;101538.22;5103629;27;45227;-60
2022/08/01 02:59:44;;;;;;;;;1.75;0.00;;;;;24.38;55.31;101539.06;5103886;27;45275;-60
2022/08/01 03:02:10;;;;;;;;;0.00;0.00;;;;;24.37;55.56;101540.91;5102955;27;45360;-60
2022/08/01 03:04:38;;;;;;;;;0.00;0.00;;;;;24.36;55.06;101541.91;5103153;27;45393;-60
2022/08/01 03:07:06;;;;;;;;;1.00;1.00;;;;;24.36;55.31;101538.38;5103459;27;45303;-60
2022/08/01 03:09:36;;;;;;;;;1.25;1.00;;;;;24.34;55.75;101533.16;5103520;27;45540;-60
2022/08/01 03:12:06;;;;;;;;;0.00;0.00;;;;;24.33;55.62;101531.47;5103194;27;45296;-60
2022/08/01 03:14:36;;;;;;;;;0.50;0.50;;;;;24.34;55.50;101532.31;5103188;27;45418;-60
2022/08/01 03:17:03;;;;;;;;;1.00;1.00;;;;;24.35;55.60;101529.47;5103170;27;45346;-61
2022/08/01 03:19:30;;;;;;;;;0.75;0.25;;;;;24.37;55.21;101529.28;5103447;27;45169;-60
2022/08/01 03:21:58;;;;;;;;;2.00;0.00;;;;;24.36;55.67;101535.69;5103238;27;46219;-60
2022/08/01 03:24:26;;;;;;;;;0.00;0.00;;;;;24.34;55.76;101533.16;5103033;27;45339;-60
2022/08/01 03:26:54;;;;;;;;;2.00;1.00;;;;;24.34;55.39;101535.84;5103254;27;45307;-60
2022/08/01 03:29:25;;;;;;;;;0.50;0.00;;;;;24.33;55.81;101544.94;5103432;27;45240;-60
2022/08/01 03:31:51;;;;;;;;;0.50;0.50;;;;;24.32;55.37;101540.53;5102684;27;46096;-60
2022/08/01 03:34:20;;;;;;;;;1.75;1.00;;;;;24.32;55.30;101540.53;5102892;27;45457;-60
2022/08/01 03:37:19;;;;;;;;;0.00;0.00;;;;;24.29;55.30;101545.38;5102967;27;45247;-60
2022/08/01 03:39:50;;;;;;;;;3.50;0.00;;;;;24.23;55.30;101542.31;5090261;27;45327;-61
2022/08/01 03:42:23;;;;;;;;;0.50;0.50;;;;;24.23;55.25;101539.63;5102961;27;45263;-60
2022/08/01 03:44:54;;;;;;;;;1.00;1.00;;;;;24.22;55.84;101539.78;5102895;27;45239;-60
2022/08/01 03:47:25;;;;;;;;;0.00;0.00;;;;;24.21;56.01;101530.03;5102506;27;45337;-60
2022/08/01 03:49:52;;;;;;;;;1.25;0.25;;;;;24.22;55.13;101534.41;5102966;27;45226;-60
2022/08/01 03:52:20;;;;;;;;;2.00;1.00;;;;;24.21;55.38;101538.94;5102852;27;45457;-60
2022/08/01 03:54:49;;;;;;;;;2.00;0.50;;;;;24.21;55.36;101543.47;5102540;27;45326;-60
2022/08/01 03:57:16;;;;;;;;;3.75;2.00;;;;;24.20;55.54;101537.25;5102663;27;45296;-60
2022/08/01 03:59:43;;;;;;;;;1.00;1.00;;;;;24.20;55.35;101548.03;5102751;27;45214;-60
2022/08/01 04:02:09;;;;;;;;;0.75;0.75;;;;;24.19;55.36;101543.66;5102133;27;46176;-60
2022/08/01 04:04:35;;;;;;;;;1.00;1.00;;;;;24.18;55.94;101531.19;5102159;27;45366;-60
2022/08/01 04:07:04;;;;;;;;;0.00;0.00;;;;;24.18;55.99;101536.59;5102511;27;45460;-59
2022/08/01 04:09:31;;;;;;;;;2.25;0.00;;;;;24.18;55.93;101536.59;5102694;27;45242;-59
2022/08/01 04:11:58;;;;;;;;;1.00;1.00;;;;;24.17;55.53;101540.28;5102201;27;45358;-59
2022/08/01 04:14:23;;;;;;;;;0.75;0.75;;;;;24.14;55.63;101535.19;5101731;27;45317;-59
2022/08/01 04:16:49;;;;;;;;;1.00;0.25;;;;;24.14;55.43;101535.19;5102195;27;45354;-60
2022/08/01 04:19:14;;;;;;;;;0.50;0.50;;;;;24.14;55.67;101529.81;5102663;27;45425;-60
2022/08/01 04:21:40;;;;;;;;;0.25;0.25;;;;;24.14;55.69;101528.97;5102092;27;45373;-59
2022/08/01 04:24:15;;;;;;;;;1.00;0.25;;;;;24.13;55.78;101530.81;5102155;27;45262;-60
2022/08/01 04:26:44;;;;;;;;;1.00;0.25;;;;;24.12;55.85;101528.28;5102380;27;45255;-59
2022/08/01 04:29:11;;;;;;;;;1.00;1.00;;;;;24.09;55.99;101517.81;5102208;27;45585;-60
2022/08/01 04:31:41;;;;;;;;;1.75;1.00;;;;;24.07;55.68;101519.84;5083500;27;47388;-59
2022/08/01 04:34:10;;;;;;;;;1.00;1.00;;;;;24.07;55.76;101515.31;5101789;27;45348;-59
2022/08/01 04:36:38;;;;;;;;;0.00;0.00;;;;;24.06;56.04;101516.31;5102328;27;45211;-59
2022/08/01 04:39:04;;;;;;;;;4.25;1.50;;;;;24.06;55.71;101508.22;5101771;27;45322;-60
2022/08/01 04:41:32;;;;;;;;;2.75;1.25;;;;;24.08;55.59;101513.44;5101817;27;45381;-60
2022/08/01 04:44:02;;;;;;;;;1.25;1.25;;;;;24.10;55.93;101514.16;5101557;27;45234;-59
2022/08/01 04:46:28;;;;;;;;;9.75;3.75;;;;;24.10;55.71;101515.00;5101546;27;45325;-60
2022/08/01 04:48:55;;;;;;;;;2.25;1.00;;;;;24.13;55.89;101516.53;5101830;27;45451;-60
2022/08/01 04:51:22;;;;;;;;;1.50;1.50;;;;;24.14;55.59;101519.03;5101849;27;45322;-60
2022/08/01 04:53:48;;;;;;;;;2.75;1.00;;;;;24.16;55.49;101529.66;5101627;27;45224;-59
2022/08/01 04:56:14;;;;;;;;;1.00;1.00;;;;;24.15;56.16;101531.50;5101980;27;45232;-60
2022/08/01 04:58:41;;;;;;;;;4.25;2.50;;;;;24.15;55.92;101523.41;5101629;27;45236;-60
2022/08/01 05:01:07;;;;;;;;;4.25;2.75;;;;;24.15;56.12;101534.19;5101505;27;45304;-60
2022/08/01 05:03:33;;;;;;;;;0.00;0.00;;;;;24.14;55.74;101531.66;5101270;27;45277;-60
2022/08/01 05:05:59;;;;;;;;;1.00;1.00;;;;;24.14;55.75;101537.03;5101716;27;45251;-59
2022/08/01 05:08:24;;;;;;;;;0.00;0.00;;;;;24.11;55.81;101538.22;5101532;27;45482;-60
2022/08/01 05:10:50;;;;;;;;;2.00;1.00;;;;;24.09;56.29;101545.59;5101635;27;45994;-60
2022/08/01 05:13:15;;;;;;;;;2.00;1.00;;;;;24.08;56.38;101540.38;5101454;27;45334;-60
2022/08/01 05:15:40;;;;;;;;;0.00;0.00;;;;;24.07;56.09;101554.84;5101863;27;45500;-60
2022/08/01 05:18:06;;;;;;;;;1.00;1.00;;;;;24.04;56.07;101553.31;5101417;27;45242;-60
2022/08/01 05:20:32;;;;;;;;;0.25;0.00;;;;;24.04;56.07;101558.69;5101580;27;45387;-60
2022/08/01 05:22:57;;;;;;;;;1.00;1.00;;;;;24.03;56.11;101554.31;5101353;27;45231;-60
2022/08/01 05:25:23;;;;;;;;;0.75;0.00;;;;;24.01;56.03;101559.00;5101561;27;45642;-60
2022/08/01 05:27:49;;;;;;;;;0.50;0.00;;;;;23.98;56.20;101555.78;5105314;27;45453;-60
2022/08/01 05:30:14;;;;;;;;;0.75;0.75;;;;;23.98;56.03;101559.31;5086730;27;47011;-59
2022/08/01 05:32:40;;;;;;;;;1.00;1.00;;;;;23.97;56.41;101554.94;5104574;27;45368;-60
2022/08/01 05:35:07;;;;;;;;;0.25;0.00;;;;;23.95;56.29;101548.88;5105319;27;45400;-59
2022/08/01 05:37:32;;;;;;;;;1.00;1.00;;;;;23.94;56.22;101548.06;5104856;27;45390;-60
2022/08/01 05:39:58;;;;;;;;;1.00;1.00;;;;;23.94;56.41;101558.81;5104699;27;45314;-59
2022/08/01 05:42:24;;;;;;;;;1.00;1.00;;;;;23.92;56.72;101558.09;5104884;27;45393;-59
2022/08/01 05:44:50;;;;;;;;;2.00;0.50;;;;;23.90;56.86;101556.59;5104717;27;45381;-60
2022/08/01 05:47:16;;;;;;;;;1.00;1.00;;;;;23.89;56.32;101552.22;5104447;27;45267;-59
2022/08/01 05:49:42;;;;;;;;;1.25;1.00;;;;;23.89;56.68;101561.13;5104643;27;45456;-60
2022/08/01 05:52:08;;;;;;;;;1.00;1.00;;;;;23.89;56.68;101561.13;5104626;27;45203;-59
2022/08/01 05:54:33;;;;;;;;;1.00;1.00;;;;;23.89;56.68;101557.59;5104873;27;45523;-59
2022/08/01 05:57:01;;;;;;;;;1.00;1.00;;;;;23.87;56.08;101564.97;5104808;27;45508;-60
2022/08/01 05:59:30;;;;;;;;;0.00;0.00;;;;;23.85;56.59;101554.34;5104644;27;46255;-60
2022/08/01 06:01:56;;;;;;;;;2.75;0.75;;;;;23.87;56.67;101568.50;5103988;27;45350;-60
2022/08/01 06:04:21;;;;;;;;;3.00;1.00;;;;;23.87;56.61;101567.69;5104299;27;45306;-60
2022/08/01 06:06:48;;;;;;;;;0.25;0.25;;;;;23.87;56.80;101573.06;5104566;27;45188;-60
2022/08/01 06:09:14;;;;;;;;;2.00;1.00;;;;;23.84;56.23;101571.50;5104537;27;45262;-60
2022/08/01 06:11:39;;;;;;;;;2.75;1.75;;;;;23.85;56.85;101566.97;5104163;27;45215;-60
2022/08/01 06:14:05;;;;;;;;;1.00;1.00;;;;;23.86;56.12;101569.53;5104695;27;45284;-59
2022/08/01 06:16:30;;;;;;;;;5.00;1.75;;;;;23.83;56.13;101574.34;5103910;27;45276;-60
2022/08/01 06:18:56;;;;;;;;;1.00;1.00;;;;;23.80;56.31;101574.69;5104307;27;45375;-60
2022/08/01 06:21:21;;;;;;;;;3.75;1.75;;;;;23.77;56.55;101573.13;5104362;27;45374;-60
2022/08/01 06:23:47;;;;;;;;;1.00;1.00;;;;;23.75;56.29;101577.81;5104508;27;45424;-60
2022/08/01 06:26:12;;;;;;;;;1.00;0.50;;;;;23.74;56.30;101578.00;5103960;27;45609;-60
2022/08/01 06:28:38;;;;;;;;;5.25;2.00;;;;;23.70;56.42;101576.59;5103993;27;46281;-59
2022/08/01 06:31:04;;;;;;;;;1.00;1.00;;;;;23.68;56.63;101571.38;5103802;27;45833;-60
2022/08/01 06:33:30;;;;;;;;;4.50;2.00;;;;;23.67;56.89;101573.22;5104149;27;45330;-59
2022/08/01 06:35:56;;;;;;;;;1.00;1.00;;;;;23.68;56.58;101574.91;5103799;27;45286;-59
2022/08/01 06:38:22;;;;;;;;;1.00;1.00;;;;;23.70;56.89;101574.78;5103394;27;45309;-60
2022/08/01 06:40:47;;;;;;;;;4.50;2.00;;;;;23.70;56.48;101577.47;5103560;27;45185;-59
2022/08/01 06:43:13;;;;;;;;;2.00;2.00;;;;;23.70;56.40;101577.47;5103937;27;45228;-59
2022/08/01 06:45:39;;;;;;;;;2.25;2.00;;;;;23.70;56.49;101571.22;5103695;27;45384;-59
2022/08/01 06:48:05;;;;;;;;;2.25;1.00;;;;;23.71;56.74;101571.09;5103478;27;45382;-59
2022/08/01 06:50:30;;;;;;;;;1.00;1.00;;;;;23.73;56.37;101570.94;5103405;27;45220;-59
2022/08/01 06:52:56;;;;;;;;;1.75;1.75;;;;;23.74;56.41;101568.06;5103986;27;45237;-59
2022/08/01 06:55:21;;;;;;;;;1.25;1.25;;;;;23.75;56.45;101576.97;5103745;27;45271;-63
2022/08/01 06:57:52;;;;;;;;;2.00;2.00;;;;;23.75;56.60;101575.13;5103524;27;46167;-60
2022/08/01 07:00:22;;;;;;;;;3.75;2.25;;;;;23.78;56.48;101582.03;5103447;27;45282;-59
2022/08/01 07:02:49;;;;;;;;;4.00;2.00;;;;;23.81;57.04;101577.22;5102945;27;45288;-60
2022/08/01 07:05:15;;;;;;;;;3.25;2.00;;;;;23.83;56.53;101575.19;5103021;27;45314;-59
2022/08/01 07:07:40;;;;;;;;;7.00;2.00;;;;;23.84;56.64;101574.19;5103224;27;45300;-60
2022/08/01 07:10:08;;;;;;;;;5.00;2.00;;;;;23.88;57.06;101580.97;5103232;27;45279;-60
2022/08/01 07:12:36;;;;;;;;;2.50;2.50;;;;;23.92;57.11;101576.09;5103413;27;45170;-60
2022/08/01 07:15:03;;;;;;;;;7.25;5.00;;;;;23.96;56.63;101580.19;5103118;27;45607;-60
2022/08/01 07:17:28;;;;;;;;;4.00;4.00;;;;;24.00;56.95;101575.31;5102799;27;46354;-60
2022/08/01 07:19:54;;;;;;;;;8.00;5.00;;;;;24.08;56.39;101573.50;5103053;27;45482;-61
2022/08/01 07:22:20;;;;;;;;;6.50;4.00;;;;;24.22;56.68;101569.41;5103252;27;45314;-60
2022/08/01 07:24:46;;;;;;;;;5.50;4.00;;;;;24.37;56.96;101577.75;5103015;27;45345;-60
2022/08/01 07:27:11;;;;;;;;;4.25;3.50;;;;;24.38;56.43;101574.91;5102968;27;45524;-60
2022/08/01 07:29:37;;;;;;;;;7.25;5.25;;;;;24.39;56.05;101581.13;5103114;27;45456;-60
2022/08/01 07:32:02;;;;;;;;;4.75;4.00;;;;;24.35;56.45;101575.22;5102915;27;45297;-60
2022/08/01 07:34:28;;;;;;;;;8.50;5.50;;;;;24.33;56.21;101585.34;5102952;27;45296;-60
2022/08/01 07:36:53;;;;;;;;;5.00;4.25;;;;;24.30;56.10;101580.22;5102758;27;46041;-60
2022/08/01 07:39:19;;;;;;;;;7.50;4.50;;;;;24.32;55.82;101580.03;5102667;27;45157;-60
2022/08/01 07:41:44;;;;;;;;;6.25;5.75;;;;;24.32;55.84;101578.22;5081300;28;45254;-60
2022/08/01 07:44:10;;;;;;;;;4.75;4.75;;;;;24.36;56.00;101590.38;5099680;27;45475;-60
2022/08/01 07:46:36;;;;;;;;;5.50;5.00;;;;;24.39;56.33;101586.53;5102660;27;45238;-60
2022/08/01 07:49:01;;;;;;;;;5.75;3.75;;;;;24.41;56.12;101597.97;5101733;27;45308;-60
2022/08/01 07:51:26;;;;;;;;;4.00;4.00;;;;;24.41;56.11;101598.84;5103100;27;45335;-60
2022/08/01 07:53:52;;;;;;;;;4.75;4.75;;;;;24.42;55.90;101595.13;5102950;27;45545;-61
2022/08/01 07:56:17;;;;;;;;;4.00;4.00;;;;;24.41;55.70;101596.16;5102734;27;45896;-60
2022/08/01 07:58:43;;;;;;;;;10.25;6.25;;;;;24.46;55.87;101607.25;5084059;27;45389;-60
2022/08/01 08:01:08;;;;;;;;;9.00;5.75;;;;;24.49;55.37;101612.34;5102483;27;45310;-60
2022/08/01 08:03:34;;;;;;;;;6.50;6.00;;;;;24.49;55.50;101609.66;5102580;27;46185;-60
2022/08/01 08:05:59;;;;;;;;;4.75;4.75;;;;;24.51;55.41;101606.78;5102423;27;46179;-60
2022/08/01 08:08:25;;;;;;;;;8.50;6.00;;;;;24.48;55.02;101602.56;5083908;27;45338;-61
2022/08/01 08:10:51;;;;;;;;;4.00;4.00;;;;;24.46;55.24;101601.88;5102868;27;45313;-61
2022/08/01 08:13:16;;;;;;;;;4.00;4.00;;;;;24.48;55.10;101599.84;5102541;27;45486;-60
2022/08/01 08:15:42;;;;;;;;;5.25;4.25;;;;;24.52;54.75;101600.41;5102269;27;45963;-60
2022/08/01 08:18:07;;;;;;;;;8.00;5.00;;;;;24.59;55.35;101608.69;5101894;27;45295;-61
2022/08/01 08:20:33;;;;;;;;;7.50;4.50;;;;;24.64;54.85;101599.09;5102484;27;45214;-60
2022/08/01 08:22:58;;;;;;;;;7.00;6.00;;;;;24.71;55.09;101602.81;5102313;27;45524;-60
2022/08/01 08:25:25;;;;;;;;;6.50;3.00;;;;;24.78;55.09;101606.56;5102089;27;46265;-60
2022/08/01 08:27:50;;;;;;;;;10.25;9.25;;;;;24.83;54.52;101605.25;5102197;27;45237;-60
2022/08/01 08:30:16;;;;;;;;;4.00;2.25;;;;;24.88;54.38;101601.03;5083890;27;45310;-60
2022/08/01 08:32:42;;;;;;;;;4.75;4.00;;;;;24.93;54.58;101609.47;5101964;27;45544;-60
2022/08/01 08:35:08;;;;;;;;;4.00;4.00;;;;;24.94;54.45;101610.31;5102408;27;45266;-60
2022/08/01 08:37:35;;;;;;;;;4.00;3.25;;;;;24.90;54.13;101619.75;5101863;27;45437;-60
2022/08/01 08:40:01;;;;;;;;;3.75;3.00;;;;;24.89;54.08;101601.91;5102378;27;45314;-60
2022/08/01 08:42:27;;;;;;;;;3.75;3.75;;;;;24.93;53.95;101597.88;5102022;27;45287;-60
2022/08/01 08:44:54;;;;;;;;;5.00;5.00;;;;;24.95;53.99;101598.53;5101970;27;45272;-60
2022/08/01 08:47:22;;;;;;;;;4.50;3.75;;;;;25.03;53.92;101587.81;5101482;27;45228;-60
2022/08/01 08:49:50;;;;;;;;;3.50;3.50;;;;;25.11;53.69;101590.53;5101982;27;45429;-60
2022/08/01 08:52:19;;;;;;;;;4.75;3.75;;;;;25.19;53.54;101584.31;5101941;27;45317;-60
2022/08/01 08:54:46;;;;;;;;;4.00;3.00;;;;;25.17;53.76;101586.31;5101691;27;45640;-60
2022/08/01 08:57:14;;;;;;;;;3.00;3.00;;;;;25.19;53.54;101587.00;5101792;27;45256;-60
2022/08/01 08:59:40;;;;;;;;;4.00;4.00;;;;;25.24;53.58;101581.97;5101568;27;45398;-60
2022/08/01 09:02:07;;;;;;;;;3.25;3.25;;;;;25.29;53.62;101588.56;5101435;27;45240;-60
2022/08/01 09:04:32;;;;;;;;;5.00;4.00;;;;;25.28;53.24;101581.47;5101306;27;45351;-60
2022/08/01 09:06:58;;;;;;;;;4.00;4.00;;;;;25.30;52.76;101579.44;5101408;27;45283;-60
2022/08/01 09:09:23;;;;;;;;;3.00;2.75;;;;;25.29;52.94;101585.84;5102070;27;45252;-60
2022/08/01 09:11:49;;;;;;;;;3.00;3.00;;;;;25.30;52.67;101592.09;5083205;27;45259;-60
2022/08/01 09:14:26;;;;;;;;;4.25;3.75;;;;;25.30;52.94;101597.50;5101550;27;45295;-60
2022/08/01 09:17:10;;;;;;;;;4.25;3.25;;;;;25.30;52.95;101592.94;5101195;27;45236;-60
2022/08/01 09:19:53;;;;;;;;;1.00;1.00;;;;;25.27;52.49;101597.81;5101419;27;45230;-60
2022/08/01 09:22:23;;;;;;;;;4.00;4.00;;;;;25.25;52.87;101599.81;5101740;27;45307;-60
2022/08/01 09:25:08;;;;;;;;;4.25;3.75;;;;;25.26;52.77;101598.81;5101019;27;45391;-60
2022/08/01 09:27:35;;;;;;;;;3.25;2.00;;;;;25.28;52.61;101600.34;5101500;27;45303;-60
2022/08/01 09:30:17;;;;;;;;;4.25;4.25;;;;;25.28;52.43;101597.66;5101576;27;45302;-60
2022/08/01 09:32:57;;;;;;;;;3.00;3.00;;;;;25.25;52.36;101594.44;5100952;27;45381;-59
2022/08/01 09:35:23;;;;;;;;;5.25;3.50;;;;;25.21;52.55;101595.78;5100907;27;45402;-60
2022/08/01 09:37:49;;;;;;;;;3.00;3.00;;;;;25.20;52.47;101597.66;5100896;27;45326;-60
2022/08/01 09:40:14;;;;;;;;;5.50;4.50;;;;;25.15;52.77;101602.69;5101435;27;45280;-61
2022/08/01 09:42:41;;;;;;;;;6.50;4.25;;;;;25.11;52.33;101592.38;5101177;27;45625;-60
2022/08/01 09:45:07;;;;;;;;;5.75;4.00;;;;;25.08;52.95;101598.94;5100822;27;45330;-60
2022/08/01 09:47:39;;;;;;;;;5.50;4.50;;;;;25.07;52.28;101594.56;5100661;27;45548;-60
2022/08/01 09:50:05;;;;;;;;;4.00;3.75;;;;;25.06;52.38;101584.81;5101194;27;45303;-59
2022/08/01 09:52:31;;;;;;;;;5.50;4.75;;;;;25.07;52.59;101591.03;5082633;27;45246;-60
2022/08/01 09:54:59;;;;;;;;;7.25;6.00;;;;;25.08;52.72;101608.91;5100954;27;46221;-60
2022/08/01 09:57:26;;;;;;;;;6.50;6.00;;;;;25.10;52.93;101606.88;5100860;27;45268;-59
2022/08/01 09:59:55;;;;;;;;;5.25;5.00;;;;;25.15;52.37;101604.53;5101116;27;45337;-60
2022/08/01 10:02:36;;;;;;;;;5.00;3.50;;;;;25.23;52.35;101609.94;5100412;27;45582;-60
2022/08/01 10:05:04;;;;;;;;;5.00;5.00;;;;;25.34;52.44;101615.00;5100350;27;46311;-60
2022/08/01 10:07:30;;;;;;;;;5.25;5.25;;;;;25.48;52.34;101608.97;5100720;27;45243;-61
2022/08/01 10:09:55;;;;;;;;;4.50;4.50;;;;;25.56;52.13;101608.97;5100693;27;45335;-61
2022/08/01 10:12:23;;;;;;;;;4.25;4.25;;;;;25.73;51.70;101606.31;5102615;27;45459;-60
2022/08/01 10:14:51;;;;;;;;;4.75;4.00;;;;;25.91;52.03;101590.81;5103808;27;45369;-60
2022/08/01 10:17:19;;;;;;;;;6.50;5.00;;;;;26.01;51.84;101596.00;5103823;27;45318;-60
2022/08/01 10:19:46;;;;;;;;;6.50;3.75;;;;;26.05;51.65;101600.03;5085826;27;45309;-59
2022/08/01 10:22:17;;;;;;;;;8.75;5.00;;;;;26.17;51.37;101604.91;5104319;27;45186;-60
2022/08/01 10:24:46;;;;;;;;;7.75;6.75;;;;;26.24;50.77;101606.94;5103680;27;46070;-59
2022/08/01 10:27:14;;;;;;;;;4.75;4.75;;;;;26.31;50.92;101605.25;5103979;27;45326;-60
2022/08/01 10:29:54;;;;;;;;;3.50;3.50;;;;;26.53;50.74;101607.19;5104084;27;45342;-59
2022/08/01 10:32:21;;;;;;;;;5.00;4.50;;;;;26.58;50.75;101604.84;5103660;27;45497;-59
2022/08/01 10:34:48;;;;;;;;;7.25;4.00;;;;;26.52;50.32;101615.50;5103718;27;45189;-59
2022/08/01 10:37:15;;;;;;;;;5.00;4.00;;;;;26.39;50.44;101613.34;5103761;27;45444;-58
2022/08/01 10:39:41;;;;;;;;;6.25;4.25;;;;;26.31;50.39;101607.94;5090693;27;45338;-60
2022/08/01 10:42:10;;;;;;;;;8.25;5.50;;;;;26.20;50.40;101601.03;5104024;27;45272;-59
2022/08/01 10:44:37;;;;;;;;;4.00;4.00;;;;;26.11;50.08;101610.16;5103793;27;45312;-60
2022/08/01 10:47:13;;;;;;;;;5.50;4.75;;;;;26.07;50.50;101606.97;5103323;27;45487;-60
2022/08/01 10:49:47;;;;;;;;;6.00;6.00;;;;;26.02;50.08;101613.88;5104085;27;45377;-60
2022/08/01 10:52:19;;;;;;;;;4.00;4.00;;;;;25.96;50.16;101607.31;5104020;27;45400;-60
2022/08/01 10:54:45;;;;;;;;;3.75;3.75;;;;;25.97;50.34;101597.34;5103491;27;46170;-60
2022/08/01 10:57:12;;;;;;;;;5.75;4.50;;;;;26.01;50.27;101604.13;5103566;27;45261;-60
2022/08/01 10:59:48;;;;;;;;;7.25;5.50;;;;;26.02;50.37;101593.13;5085546;27;45279;-61
2022/08/01 11:02:26;;;;;;;;;4.00;4.00;;;;;26.03;50.54;101605.63;5103256;27;45315;-60
2022/08/01 11:05:02;;;;;;;;;5.00;5.00;;;;;26.07;50.18;101600.72;5103097;27;45511;-60
2022/08/01 11:07:43;;;;;;;;;8.25;7.00;;;;;26.07;50.33;101604.28;5103542;27;45261;-60
2022/08/01 11:10:22;;;;;;;;;7.25;5.75;;;;;26.16;49.82;101603.25;5103040;27;45313;-60
2022/08/01 11:12:47;;;;;;;;;7.00;5.00;;;;;26.32;50.21;101598.81;5103468;27;45482;-61
2022/08/01 11:15:13;;;;;;;;;6.50;5.00;;;;;26.55;50.10;101597.09;5102893;27;45231;-61
2022/08/01 11:17:50;;;;;;;;;6.00;6.00;;;;;26.68;49.78;101604.63;5084606;27;45356;-61
2022/08/01 11:20:20;;;;;;;;;8.00;7.00;;;;;26.73;49.96;101593.28;5103348;27;45406;-61
2022/08/01 11:23:01;;;;;;;;;5.00;5.00;;;;;26.70;49.60;101597.16;5103276;27;45252;-58
2022/08/01 11:25:36;;;;;;;;;7.00;5.00;;;;;26.63;49.64;101598.91;5103163;27;45413;-59
2022/08/01 11:28:14;;;;;;;;;8.75;7.25;;;;;26.62;49.58;101586.41;5102969;27;45243;-59
2022/08/01 11:30:50;;;;;;;;;7.75;5.00;;;;;26.62;49.61;101594.50;5103103;27;45331;-59